< < Back
Terminal Aerodrome Forecast


Current Version              Previous Versions:   1  2  3  4  5  6  7  8  9  

Terminal Aerodrome Forecast

162
FTUS42 KFFC 241100
TAFFTY
TAF
KFTY 241126Z 2412/2512 23003KT 6SM BR FEW040
     FM241400 26006KT P6SM BKN040
     FM241700 27008G16KT P6SM VCSH BKN050
     FM242300 30006KT P6SM VCSH SCT050 BKN100
     FM250300 29004KT P6SM SCT120 BKN250=

Latest METAR

776
SAUS70 KWBC 241500 RRF
MTRFTY
METAR KFTY 241453Z 26006KT 10SM SCT026 SCT032 28/22 A3001 RMK AO2 SLP152
T02780217 50005


USA.gov is the U.S. government's official web portal to all federal, state and local government web resources and services.